sensor_id;sensor_type;location;lat;lon;timestamp;P1;durP1;ratioP1;P2;durP2;ratioP2
26325;SDS011;14032;52.510;7.342;2023-05-10T00:01:53;17.23;;;12.65;;
26325;SDS011;14032;52.510;7.342;2023-05-10T00:04:19;18.75;;;13.90;;
26325;SDS011;14032;52.510;7.342;2023-05-10T00:06:45;21.23;;;13.77;;
26325;SDS011;14032;52.510;7.342;2023-05-10T00:09:10;18.60;;;13.38;;
26325;SDS011;14032;52.510;7.342;2023-05-10T00:11:36;23.17;;;15.00;;
26325;SDS011;14032;52.510;7.342;2023-05-10T00:14:01;23.58;;;14.48;;
26325;SDS011;14032;52.510;7.342;2023-05-10T00:16:27;21.88;;;15.30;;
26325;SDS011;14032;52.510;7.342;2023-05-10T00:18:53;28.13;;;17.40;;
26325;SDS011;14032;52.510;7.342;2023-05-10T00:21:18;32.58;;;17.73;;
26325;SDS011;14032;52.510;7.342;2023-05-10T00:23:44;34.78;;;18.10;;
26325;SDS011;14032;52.510;7.342;2023-05-10T00:26:10;46.15;;;20.92;;
26325;SDS011;14032;52.510;7.342;2023-05-10T00:28:36;34.45;;;19.25;;
26325;SDS011;14032;52.510;7.342;2023-05-10T00:31:01;32.97;;;20.10;;
26325;SDS011;14032;52.510;7.342;2023-05-10T00:33:27;36.45;;;21.05;;
26325;SDS011;14032;52.510;7.342;2023-05-10T00:35:53;33.33;;;20.92;;
26325;SDS011;14032;52.510;7.342;2023-05-10T00:38:18;32.55;;;19.50;;
26325;SDS011;14032;52.510;7.342;2023-05-10T00:40:44;34.65;;;21.10;;
26325;SDS011;14032;52.510;7.342;2023-05-10T00:43:09;32.78;;;19.80;;
26325;SDS011;14032;52.510;7.342;2023-05-10T00:45:35;39.22;;;20.42;;
26325;SDS011;14032;52.510;7.342;2023-05-10T00:48:01;32.08;;;19.63;;
26325;SDS011;14032;52.510;7.342;2023-05-10T00:50:28;37.38;;;18.70;;
26325;SDS011;14032;52.510;7.342;2023-05-10T00:52:55;28.08;;;18.13;;
26325;SDS011;14032;52.510;7.342;2023-05-10T00:55:21;29.42;;;18.88;;
26325;SDS011;14032;52.510;7.342;2023-05-10T00:57:47;37.80;;;19.80;;
26325;SDS011;14032;52.510;7.342;2023-05-10T01:00:13;32.30;;;19.00;;
26325;SDS011;14032;52.510;7.342;2023-05-10T01:02:43;33.63;;;18.92;;
26325;SDS011;14032;52.510;7.342;2023-05-10T01:05:12;29.42;;;17.73;;
26325;SDS011;14032;52.510;7.342;2023-05-10T01:07:38;34.05;;;17.23;;
26325;SDS011;14032;52.510;7.342;2023-05-10T01:10:07;18.13;;;9.93;;
26325;SDS011;14032;52.510;7.342;2023-05-10T01:12:34;9.93;;;6.88;;
26325;SDS011;14032;52.510;7.342;2023-05-10T01:15:03;13.23;;;6.00;;
26325;SDS011;14032;52.510;7.342;2023-05-10T01:17:30;19.20;;;6.75;;
26325;SDS011;14032;52.510;7.342;2023-05-10T01:19:57;9.15;;;6.30;;
26325;SDS011;14032;52.510;7.342;2023-05-10T01:36:31;14.18;;;9.70;;
26325;SDS011;14032;52.510;7.342;2023-05-10T01:39:15;13.68;;;9.95;;
26325;SDS011;14032;52.510;7.342;2023-05-10T01:41:56;14.63;;;10.27;;
26325;SDS011;14032;52.510;7.342;2023-05-10T01:47:31;16.70;;;12.25;;
26325;SDS011;14032;52.510;7.342;2023-05-10T01:50:03;18.65;;;14.02;;
26325;SDS011;14032;52.510;7.342;2023-05-10T01:52:32;24.52;;;15.15;;
26325;SDS011;14032;52.510;7.342;2023-05-10T01:55:02;26.77;;;17.00;;
26325;SDS011;14032;52.510;7.342;2023-05-10T01:57:33;24.45;;;17.50;;
26325;SDS011;14032;52.510;7.342;2023-05-10T02:00:02;26.80;;;17.80;;
26325;SDS011;14032;52.510;7.342;2023-05-10T02:02:29;26.83;;;18.67;;
26325;SDS011;14032;52.510;7.342;2023-05-10T02:04:58;27.90;;;20.38;;
26325;SDS011;14032;52.510;7.342;2023-05-10T02:07:24;28.48;;;19.17;;
26325;SDS011;14032;52.510;7.342;2023-05-10T02:09:53;26.67;;;19.65;;
26325;SDS011;14032;52.510;7.342;2023-05-10T02:12:20;26.48;;;20.77;;
26325;SDS011;14032;52.510;7.342;2023-05-10T02:14:47;31.70;;;21.23;;
26325;SDS011;14032;52.510;7.342;2023-05-10T02:17:13;30.38;;;20.92;;
26325;SDS011;14032;52.510;7.342;2023-05-10T02:19:40;30.25;;;20.70;;
26325;SDS011;14032;52.510;7.342;2023-05-10T02:22:07;29.45;;;21.27;;
26325;SDS011;14032;52.510;7.342;2023-05-10T02:24:34;31.02;;;20.65;;
26325;SDS011;14032;52.510;7.342;2023-05-10T02:27:01;33.80;;;21.70;;
26325;SDS011;14032;52.510;7.342;2023-05-10T02:29:28;35.33;;;22.23;;
26325;SDS011;14032;52.510;7.342;2023-05-10T02:31:56;35.38;;;22.38;;
26325;SDS011;14032;52.510;7.342;2023-05-10T02:34:24;34.40;;;22.30;;
26325;SDS011;14032;52.510;7.342;2023-05-10T02:36:52;37.72;;;22.40;;
26325;SDS011;14032;52.510;7.342;2023-05-10T02:39:19;38.33;;;23.05;;
26325;SDS011;14032;52.510;7.342;2023-05-10T02:41:45;34.25;;;21.48;;
26325;SDS011;14032;52.510;7.342;2023-05-10T02:44:13;37.47;;;23.27;;
26325;SDS011;14032;52.510;7.342;2023-05-10T02:46:40;35.17;;;23.27;;
26325;SDS011;14032;52.510;7.342;2023-05-10T02:49:06;34.88;;;21.48;;
26325;SDS011;14032;52.510;7.342;2023-05-10T02:51:32;36.25;;;22.40;;
26325;SDS011;14032;52.510;7.342;2023-05-10T02:54:04;37.63;;;22.33;;
26325;SDS011;14032;52.510;7.342;2023-05-10T02:56:35;38.30;;;22.50;;
26325;SDS011;14032;52.510;7.342;2023-05-10T02:59:05;37.88;;;22.92;;
26325;SDS011;14032;52.510;7.342;2023-05-10T03:01:31;35.17;;;21.95;;
26325;SDS011;14032;52.510;7.342;2023-05-10T03:03:57;36.85;;;22.65;;
26325;SDS011;14032;52.510;7.342;2023-05-10T03:06:22;38.72;;;22.27;;
26325;SDS011;14032;52.510;7.342;2023-05-10T03:08:48;33.70;;;22.58;;
26325;SDS011;14032;52.510;7.342;2023-05-10T03:13:57;31.88;;;21.10;;
26325;SDS011;14032;52.510;7.342;2023-05-10T03:16:45;33.35;;;20.30;;
26325;SDS011;14032;52.510;7.342;2023-05-10T03:19:16;28.73;;;20.00;;
26325;SDS011;14032;52.510;7.342;2023-05-10T03:21:49;32.60;;;19.65;;
26325;SDS011;14032;52.510;7.342;2023-05-10T03:24:18;30.02;;;19.45;;
26325;SDS011;14032;52.510;7.342;2023-05-10T03:26:46;37.38;;;21.13;;
26325;SDS011;14032;52.510;7.342;2023-05-10T03:29:13;28.40;;;18.65;;
26325;SDS011;14032;52.510;7.342;2023-05-10T03:31:40;33.20;;;20.60;;
26325;SDS011;14032;52.510;7.342;2023-05-10T03:34:06;31.85;;;20.15;;
26325;SDS011;14032;52.510;7.342;2023-05-10T03:36:32;30.42;;;19.25;;
26325;SDS011;14032;52.510;7.342;2023-05-10T03:38:58;32.45;;;20.00;;
26325;SDS011;14032;52.510;7.342;2023-05-10T03:41:23;33.90;;;19.67;;
26325;SDS011;14032;52.510;7.342;2023-05-10T03:43:50;37.58;;;19.75;;
26325;SDS011;14032;52.510;7.342;2023-05-10T03:46:16;36.80;;;19.45;;
26325;SDS011;14032;52.510;7.342;2023-05-10T03:48:42;29.08;;;18.92;;
26325;SDS011;14032;52.510;7.342;2023-05-10T03:51:07;31.42;;;18.85;;
26325;SDS011;14032;52.510;7.342;2023-05-10T03:53:33;36.10;;;19.95;;
26325;SDS011;14032;52.510;7.342;2023-05-10T03:55:59;36.67;;;19.60;;
26325;SDS011;14032;52.510;7.342;2023-05-10T03:58:24;31.63;;;20.20;;
26325;SDS011;14032;52.510;7.342;2023-05-10T04:00:50;35.63;;;20.10;;
26325;SDS011;14032;52.510;7.342;2023-05-10T04:03:16;33.70;;;20.13;;
26325;SDS011;14032;52.510;7.342;2023-05-10T04:05:42;36.15;;;21.73;;
26325;SDS011;14032;52.510;7.342;2023-05-10T04:08:08;30.92;;;20.05;;
26325;SDS011;14032;52.510;7.342;2023-05-10T04:10:33;34.95;;;21.23;;
26325;SDS011;14032;52.510;7.342;2023-05-10T04:12:59;51.35;;;20.08;;
26325;SDS011;14032;52.510;7.342;2023-05-10T04:15:24;39.03;;;20.80;;
26325;SDS011;14032;52.510;7.342;2023-05-10T04:17:50;32.70;;;20.05;;
26325;SDS011;14032;52.510;7.342;2023-05-10T04:20:16;36.70;;;19.63;;
26325;SDS011;14032;52.510;7.342;2023-05-10T04:22:42;34.72;;;19.92;;
26325;SDS011;14032;52.510;7.342;2023-05-10T04:25:07;40.28;;;21.08;;
26325;SDS011;14032;52.510;7.342;2023-05-10T04:27:33;35.53;;;20.75;;
26325;SDS011;14032;52.510;7.342;2023-05-10T04:29:59;39.63;;;20.70;;
26325;SDS011;14032;52.510;7.342;2023-05-10T04:32:25;32.70;;;19.85;;
26325;SDS011;14032;52.510;7.342;2023-05-10T04:34:50;39.03;;;22.27;;
26325;SDS011;14032;52.510;7.342;2023-05-10T04:37:17;35.92;;;20.70;;
26325;SDS011;14032;52.510;7.342;2023-05-10T04:39:42;39.63;;;21.95;;
26325;SDS011;14032;52.510;7.342;2023-05-10T04:42:08;40.97;;;22.25;;
26325;SDS011;14032;52.510;7.342;2023-05-10T04:44:34;37.58;;;22.58;;
26325;SDS011;14032;52.510;7.342;2023-05-10T04:47:00;40.28;;;22.73;;
26325;SDS011;14032;52.510;7.342;2023-05-10T04:49:27;41.17;;;21.30;;
26325;SDS011;14032;52.510;7.342;2023-05-10T04:51:53;49.40;;;23.20;;
26325;SDS011;14032;52.510;7.342;2023-05-10T04:54:18;48.60;;;22.38;;
26325;SDS011;14032;52.510;7.342;2023-05-10T04:56:44;43.80;;;22.70;;
26325;SDS011;14032;52.510;7.342;2023-05-10T04:59:10;48.03;;;23.85;;
26325;SDS011;14032;52.510;7.342;2023-05-10T05:01:35;54.85;;;23.05;;
26325;SDS011;14032;52.510;7.342;2023-05-10T05:04:01;49.15;;;24.85;;
26325;SDS011;14032;52.510;7.342;2023-05-10T05:06:26;44.70;;;24.30;;
26325;SDS011;14032;52.510;7.342;2023-05-10T05:08:52;45.85;;;24.85;;
26325;SDS011;14032;52.510;7.342;2023-05-10T05:11:18;46.92;;;24.60;;
26325;SDS011;14032;52.510;7.342;2023-05-10T05:13:44;47.35;;;24.52;;
26325;SDS011;14032;52.510;7.342;2023-05-10T05:16:10;43.30;;;24.63;;
26325;SDS011;14032;52.510;7.342;2023-05-10T05:18:38;45.83;;;23.90;;
26325;SDS011;14032;52.510;7.342;2023-05-10T05:21:13;45.17;;;23.63;;
26325;SDS011;14032;52.510;7.342;2023-05-10T05:23:42;54.90;;;25.30;;
26325;SDS011;14032;52.510;7.342;2023-05-10T05:26:08;48.00;;;24.63;;
26325;SDS011;14032;52.510;7.342;2023-05-10T05:28:34;48.40;;;24.25;;
26325;SDS011;14032;52.510;7.342;2023-05-10T05:31:03;44.08;;;23.35;;
26325;SDS011;14032;52.510;7.342;2023-05-10T05:33:30;45.75;;;23.55;;
26325;SDS011;14032;52.510;7.342;2023-05-10T05:35:56;46.50;;;23.13;;
26325;SDS011;14032;52.510;7.342;2023-05-10T05:38:21;46.92;;;23.20;;
26325;SDS011;14032;52.510;7.342;2023-05-10T05:40:47;47.40;;;23.50;;
26325;SDS011;14032;52.510;7.342;2023-05-10T05:43:12;47.70;;;22.83;;
26325;SDS011;14032;52.510;7.342;2023-05-10T05:45:38;48.22;;;24.33;;
26325;SDS011;14032;52.510;7.342;2023-05-10T05:48:04;46.58;;;23.33;;
26325;SDS011;14032;52.510;7.342;2023-05-10T05:50:29;45.85;;;23.20;;
26325;SDS011;14032;52.510;7.342;2023-05-10T05:52:55;47.08;;;22.40;;
26325;SDS011;14032;52.510;7.342;2023-05-10T05:55:22;48.10;;;23.77;;
26325;SDS011;14032;52.510;7.342;2023-05-10T05:57:49;50.15;;;22.58;;
26325;SDS011;14032;52.510;7.342;2023-05-10T06:00:14;42.65;;;22.50;;
26325;SDS011;14032;52.510;7.342;2023-05-10T06:02:43;45.15;;;22.75;;
26325;SDS011;14032;52.510;7.342;2023-05-10T06:05:09;42.47;;;21.40;;
26325;SDS011;14032;52.510;7.342;2023-05-10T06:07:35;38.15;;;20.00;;
26325;SDS011;14032;52.510;7.342;2023-05-10T06:10:03;43.25;;;20.27;;
26325;SDS011;14032;52.510;7.342;2023-05-10T06:12:30;48.90;;;20.75;;
26325;SDS011;14032;52.510;7.342;2023-05-10T06:14:57;39.00;;;18.90;;
26325;SDS011;14032;52.510;7.342;2023-05-10T06:17:26;40.33;;;19.33;;
26325;SDS011;14032;52.510;7.342;2023-05-10T06:19:52;41.42;;;20.17;;
26325;SDS011;14032;52.510;7.342;2023-05-10T06:22:18;39.35;;;19.58;;
26325;SDS011;14032;52.510;7.342;2023-05-10T06:24:43;39.95;;;19.55;;
26325;SDS011;14032;52.510;7.342;2023-05-10T06:27:09;38.50;;;19.48;;
26325;SDS011;14032;52.510;7.342;2023-05-10T06:29:34;43.08;;;19.98;;
26325;SDS011;14032;52.510;7.342;2023-05-10T06:32:00;39.63;;;19.38;;
26325;SDS011;14032;52.510;7.342;2023-05-10T06:34:26;53.50;;;21.33;;
26325;SDS011;14032;52.510;7.342;2023-05-10T06:36:51;37.85;;;18.83;;
26325;SDS011;14032;52.510;7.342;2023-05-10T06:39:17;43.38;;;20.50;;
26325;SDS011;14032;52.510;7.342;2023-05-10T06:41:46;42.15;;;20.92;;
26325;SDS011;14032;52.510;7.342;2023-05-10T06:44:11;43.15;;;20.48;;
26325;SDS011;14032;52.510;7.342;2023-05-10T06:46:40;52.67;;;21.83;;
26325;SDS011;14032;52.510;7.342;2023-05-10T06:49:07;46.83;;;21.17;;
26325;SDS011;14032;52.510;7.342;2023-05-10T06:51:33;52.33;;;22.80;;
26325;SDS011;14032;52.510;7.342;2023-05-10T06:53:59;41.13;;;20.35;;
26325;SDS011;14032;52.510;7.342;2023-05-10T06:56:25;45.38;;;21.15;;
26325;SDS011;14032;52.510;7.342;2023-05-10T06:58:50;40.50;;;20.05;;
26325;SDS011;14032;52.510;7.342;2023-05-10T07:01:16;43.92;;;21.90;;
26325;SDS011;14032;52.510;7.342;2023-05-10T07:03:42;53.88;;;22.55;;
26325;SDS011;14032;52.510;7.342;2023-05-10T07:06:07;50.28;;;22.20;;
26325;SDS011;14032;52.510;7.342;2023-05-10T07:08:33;51.13;;;21.50;;
26325;SDS011;14032;52.510;7.342;2023-05-10T07:11:00;51.78;;;21.80;;
26325;SDS011;14032;52.510;7.342;2023-05-10T07:13:26;54.22;;;23.42;;
26325;SDS011;14032;52.510;7.342;2023-05-10T07:15:52;52.72;;;22.00;;
26325;SDS011;14032;52.510;7.342;2023-05-10T07:18:17;53.05;;;22.17;;
26325;SDS011;14032;52.510;7.342;2023-05-10T07:20:43;54.42;;;23.77;;
26325;SDS011;14032;52.510;7.342;2023-05-10T07:23:08;52.35;;;23.13;;
26325;SDS011;14032;52.510;7.342;2023-05-10T07:25:34;55.25;;;23.77;;
26325;SDS011;14032;52.510;7.342;2023-05-10T07:27:59;52.88;;;23.08;;
26325;SDS011;14032;52.510;7.342;2023-05-10T07:30:25;45.45;;;22.73;;
26325;SDS011;14032;52.510;7.342;2023-05-10T07:32:51;48.60;;;23.58;;
26325;SDS011;14032;52.510;7.342;2023-05-10T07:35:16;50.78;;;23.73;;
26325;SDS011;14032;52.510;7.342;2023-05-10T07:37:42;59.17;;;24.98;;
26325;SDS011;14032;52.510;7.342;2023-05-10T07:40:07;57.95;;;23.85;;
26325;SDS011;14032;52.510;7.342;2023-05-10T07:42:33;52.83;;;23.70;;
26325;SDS011;14032;52.510;7.342;2023-05-10T07:44:59;59.47;;;25.50;;
26325;SDS011;14032;52.510;7.342;2023-05-10T07:47:24;50.63;;;23.77;;
26325;SDS011;14032;52.510;7.342;2023-05-10T07:49:50;48.10;;;22.65;;
26325;SDS011;14032;52.510;7.342;2023-05-10T07:52:16;43.55;;;23.45;;
26325;SDS011;14032;52.510;7.342;2023-05-10T07:54:42;47.03;;;23.02;;
26325;SDS011;14032;52.510;7.342;2023-05-10T07:57:07;46.30;;;23.35;;
26325;SDS011;14032;52.510;7.342;2023-05-10T07:59:33;45.47;;;22.55;;
26325;SDS011;14032;52.510;7.342;2023-05-10T08:01:58;47.08;;;23.70;;
26325;SDS011;14032;52.510;7.342;2023-05-10T08:04:24;48.50;;;24.42;;
26325;SDS011;14032;52.510;7.342;2023-05-10T08:06:50;45.10;;;22.33;;
26325;SDS011;14032;52.510;7.342;2023-05-10T08:09:15;60.97;;;25.27;;
26325;SDS011;14032;52.510;7.342;2023-05-10T08:11:41;51.38;;;24.02;;
26325;SDS011;14032;52.510;7.342;2023-05-10T08:14:06;51.00;;;24.23;;
26325;SDS011;14032;52.510;7.342;2023-05-10T08:16:32;38.75;;;22.98;;
26325;SDS011;14032;52.510;7.342;2023-05-10T08:18:58;46.53;;;23.92;;
26325;SDS011;14032;52.510;7.342;2023-05-10T08:21:23;45.05;;;23.95;;
26325;SDS011;14032;52.510;7.342;2023-05-10T08:23:49;46.33;;;22.80;;
26325;SDS011;14032;52.510;7.342;2023-05-10T08:26:14;40.90;;;21.60;;
26325;SDS011;14032;52.510;7.342;2023-05-10T08:28:40;53.15;;;23.42;;
26325;SDS011;14032;52.510;7.342;2023-05-10T08:31:06;57.90;;;23.35;;
26325;SDS011;14032;52.510;7.342;2023-05-10T08:33:31;41.72;;;22.08;;
26325;SDS011;14032;52.510;7.342;2023-05-10T08:35:57;45.55;;;22.33;;
26325;SDS011;14032;52.510;7.342;2023-05-10T08:38:22;38.88;;;21.95;;
26325;SDS011;14032;52.510;7.342;2023-05-10T08:40:48;36.08;;;21.10;;
26325;SDS011;14032;52.510;7.342;2023-05-10T08:43:15;44.08;;;23.25;;
26325;SDS011;14032;52.510;7.342;2023-05-10T08:45:42;35.75;;;19.63;;
26325;SDS011;14032;52.510;7.342;2023-05-10T08:48:10;38.05;;;20.98;;
26325;SDS011;14032;52.510;7.342;2023-05-10T08:50:37;37.53;;;20.20;;
26325;SDS011;14032;52.510;7.342;2023-05-10T08:53:04;40.40;;;21.77;;
26325;SDS011;14032;52.510;7.342;2023-05-10T08:55:34;37.17;;;20.90;;
26325;SDS011;14032;52.510;7.342;2023-05-10T08:58:01;37.05;;;21.25;;
26325;SDS011;14032;52.510;7.342;2023-05-10T09:00:28;40.67;;;21.55;;
26325;SDS011;14032;52.510;7.342;2023-05-10T09:02:54;40.47;;;22.42;;
26325;SDS011;14032;52.510;7.342;2023-05-10T09:05:20;41.95;;;21.95;;
26325;SDS011;14032;52.510;7.342;2023-05-10T09:07:46;36.78;;;21.45;;
26325;SDS011;14032;52.510;7.342;2023-05-10T09:10:11;41.10;;;21.15;;
26325;SDS011;14032;52.510;7.342;2023-05-10T09:12:40;34.67;;;21.27;;
26325;SDS011;14032;52.510;7.342;2023-05-10T09:15:07;39.10;;;22.38;;
26325;SDS011;14032;52.510;7.342;2023-05-10T09:17:34;33.90;;;20.58;;
26325;SDS011;14032;52.510;7.342;2023-05-10T09:20:00;37.38;;;21.98;;
26325;SDS011;14032;52.510;7.342;2023-05-10T09:22:27;39.97;;;20.85;;
26325;SDS011;14032;52.510;7.342;2023-05-10T09:27:38;39.55;;;19.67;;
26325;SDS011;14032;52.510;7.342;2023-05-10T09:30:05;29.17;;;16.67;;
26325;SDS011;14032;52.510;7.342;2023-05-10T09:32:42;25.25;;;14.00;;
26325;SDS011;14032;52.510;7.342;2023-05-10T09:35:42;23.65;;;13.68;;
26325;SDS011;14032;52.510;7.342;2023-05-10T09:38:03;24.70;;;13.25;;
26325;SDS011;14032;52.510;7.342;2023-05-10T09:40:29;26.30;;;12.48;;
26325;SDS011;14032;52.510;7.342;2023-05-10T09:42:56;17.08;;;10.48;;
26325;SDS011;14032;52.510;7.342;2023-05-10T09:45:23;19.52;;;10.63;;
26325;SDS011;14032;52.510;7.342;2023-05-10T09:47:50;23.92;;;10.52;;
26325;SDS011;14032;52.510;7.342;2023-05-10T09:50:16;27.38;;;10.25;;
26325;SDS011;14032;52.510;7.342;2023-05-10T09:55:22;17.77;;;9.15;;
26325;SDS011;14032;52.510;7.342;2023-05-10T09:57:48;21.92;;;8.73;;
26325;SDS011;14032;52.510;7.342;2023-05-10T10:00:22;20.25;;;8.60;;
26325;SDS011;14032;52.510;7.342;2023-05-10T10:02:55;13.57;;;6.93;;
26325;SDS011;14032;52.510;7.342;2023-05-10T10:05:32;12.02;;;7.63;;
26325;SDS011;14032;52.510;7.342;2023-05-10T10:08:00;19.08;;;9.95;;
26325;SDS011;14032;52.510;7.342;2023-05-10T10:10:29;17.33;;;9.35;;
26325;SDS011;14032;52.510;7.342;2023-05-10T10:12:57;15.80;;;8.27;;
26325;SDS011;14032;52.510;7.342;2023-05-10T10:15:23;13.02;;;7.85;;
26325;SDS011;14032;52.510;7.342;2023-05-10T10:17:50;14.52;;;6.55;;
26325;SDS011;14032;52.510;7.342;2023-05-10T10:20:17;12.73;;;5.57;;
26325;SDS011;14032;52.510;7.342;2023-05-10T10:22:43;8.95;;;5.10;;
26325;SDS011;14032;52.510;7.342;2023-05-10T10:25:14;15.63;;;5.45;;
26325;SDS011;14032;52.510;7.342;2023-05-10T10:27:43;7.78;;;4.70;;
26325;SDS011;14032;52.510;7.342;2023-05-10T10:35:26;10.82;;;3.28;;
26325;SDS011;14032;52.510;7.342;2023-05-10T10:37:54;12.38;;;4.10;;
26325;SDS011;14032;52.510;7.342;2023-05-10T10:42:50;10.00;;;4.70;;
26325;SDS011;14032;52.510;7.342;2023-05-10T10:45:16;15.35;;;4.90;;
26325;SDS011;14032;52.510;7.342;2023-05-10T10:47:41;10.90;;;4.90;;
26325;SDS011;14032;52.510;7.342;2023-05-10T10:50:08;8.20;;;4.78;;
26325;SDS011;14032;52.510;7.342;2023-05-10T10:52:42;11.02;;;5.38;;
26325;SDS011;14032;52.510;7.342;2023-05-10T10:55:12;11.52;;;6.15;;
26325;SDS011;14032;52.510;7.342;2023-05-10T10:57:50;11.50;;;7.38;;
26325;SDS011;14032;52.510;7.342;2023-05-10T11:15:57;17.05;;;8.82;;
26325;SDS011;14032;52.510;7.342;2023-05-10T11:18:25;15.18;;;8.30;;
26325;SDS011;14032;52.510;7.342;2023-05-10T11:20:54;18.48;;;6.97;;
26325;SDS011;14032;52.510;7.342;2023-05-10T11:26:10;15.30;;;7.30;;
26325;SDS011;14032;52.510;7.342;2023-05-10T11:28:43;12.18;;;7.55;;
26325;SDS011;14032;52.510;7.342;2023-05-10T11:31:10;13.45;;;7.88;;
26325;SDS011;14032;52.510;7.342;2023-05-10T11:33:44;13.52;;;7.65;;
26325;SDS011;14032;52.510;7.342;2023-05-10T11:36:14;14.90;;;6.63;;
26325;SDS011;14032;52.510;7.342;2023-05-10T11:38:41;11.82;;;7.10;;
26325;SDS011;14032;52.510;7.342;2023-05-10T11:41:08;12.82;;;6.32;;
26325;SDS011;14032;52.510;7.342;2023-05-10T11:43:35;13.13;;;7.13;;
26325;SDS011;14032;52.510;7.342;2023-05-10T11:46:03;12.70;;;6.63;;
26325;SDS011;14032;52.510;7.342;2023-05-10T11:48:32;14.25;;;5.75;;
26325;SDS011;14032;52.510;7.342;2023-05-10T11:50:58;10.00;;;5.95;;
26325;SDS011;14032;52.510;7.342;2023-05-10T11:53:27;9.60;;;6.18;;
26325;SDS011;14032;52.510;7.342;2023-05-10T11:55:53;12.07;;;5.78;;
26325;SDS011;14032;52.510;7.342;2023-05-10T11:58:18;18.40;;;5.85;;
26325;SDS011;14032;52.510;7.342;2023-05-10T12:00:46;13.25;;;5.85;;
26325;SDS011;14032;52.510;7.342;2023-05-10T12:03:12;13.38;;;5.60;;
26325;SDS011;14032;52.510;7.342;2023-05-10T12:05:38;12.77;;;4.55;;
26325;SDS011;14032;52.510;7.342;2023-05-10T12:08:14;7.75;;;4.65;;
26325;SDS011;14032;52.510;7.342;2023-05-10T12:10:41;8.15;;;4.78;;
26325;SDS011;14032;52.510;7.342;2023-05-10T12:13:13;7.60;;;4.97;;
26325;SDS011;14032;52.510;7.342;2023-05-10T12:15:40;12.23;;;5.45;;
26325;SDS011;14032;52.510;7.342;2023-05-10T12:18:07;11.82;;;5.43;;
26325;SDS011;14032;52.510;7.342;2023-05-10T12:20:37;7.65;;;4.95;;
26325;SDS011;14032;52.510;7.342;2023-05-10T12:23:04;9.75;;;5.18;;
26325;SDS011;14032;52.510;7.342;2023-05-10T12:25:31;8.55;;;4.68;;
26325;SDS011;14032;52.510;7.342;2023-05-10T12:27:58;7.43;;;4.40;;
26325;SDS011;14032;52.510;7.342;2023-05-10T12:30:30;7.03;;;4.45;;
26325;SDS011;14032;52.510;7.342;2023-05-10T12:33:10;7.45;;;4.05;;
26325;SDS011;14032;52.510;7.342;2023-05-10T12:35:47;7.40;;;3.92;;
26325;SDS011;14032;52.510;7.342;2023-05-10T12:41:07;9.27;;;4.25;;
26325;SDS011;14032;52.510;7.342;2023-05-10T12:43:38;8.60;;;4.85;;
26325;SDS011;14032;52.510;7.342;2023-05-10T12:46:07;8.00;;;4.65;;
26325;SDS011;14032;52.510;7.342;2023-05-10T12:48:38;8.23;;;4.80;;
26325;SDS011;14032;52.510;7.342;2023-05-10T12:51:04;7.68;;;5.05;;
26325;SDS011;14032;52.510;7.342;2023-05-10T12:53:37;8.38;;;4.72;;
26325;SDS011;14032;52.510;7.342;2023-05-10T12:56:03;7.97;;;4.55;;
26325;SDS011;14032;52.510;7.342;2023-05-10T12:58:29;9.93;;;4.40;;
26325;SDS011;14032;52.510;7.342;2023-05-10T13:00:54;8.65;;;4.30;;
26325;SDS011;14032;52.510;7.342;2023-05-10T13:03:21;7.93;;;4.03;;
26325;SDS011;14032;52.510;7.342;2023-05-10T13:05:47;6.80;;;4.20;;
26325;SDS011;14032;52.510;7.342;2023-05-10T13:08:13;5.78;;;3.35;;
26325;SDS011;14032;52.510;7.342;2023-05-10T13:10:38;6.18;;;3.53;;
26325;SDS011;14032;52.510;7.342;2023-05-10T13:13:04;7.22;;;3.40;;
26325;SDS011;14032;52.510;7.342;2023-05-10T13:15:30;4.78;;;2.63;;
26325;SDS011;14032;52.510;7.342;2023-05-10T13:17:56;7.00;;;3.17;;
26325;SDS011;14032;52.510;7.342;2023-05-10T13:20:21;6.90;;;3.90;;
26325;SDS011;14032;52.510;7.342;2023-05-10T13:22:47;6.20;;;3.72;;
26325;SDS011;14032;52.510;7.342;2023-05-10T13:25:12;8.65;;;3.40;;
26325;SDS011;14032;52.510;7.342;2023-05-10T13:27:39;7.03;;;4.18;;
26325;SDS011;14032;52.510;7.342;2023-05-10T13:30:06;5.90;;;4.32;;
26325;SDS011;14032;52.510;7.342;2023-05-10T13:32:33;10.13;;;5.45;;
26325;SDS011;14032;52.510;7.342;2023-05-10T13:34:59;8.27;;;5.68;;
26325;SDS011;14032;52.510;7.342;2023-05-10T13:37:25;8.30;;;4.75;;
26325;SDS011;14032;52.510;7.342;2023-05-10T13:39:50;10.80;;;4.25;;
26325;SDS011;14032;52.510;7.342;2023-05-10T13:42:16;6.18;;;3.08;;
26325;SDS011;14032;52.510;7.342;2023-05-10T13:44:42;5.43;;;3.03;;
26325;SDS011;14032;52.510;7.342;2023-05-10T13:47:08;7.32;;;3.00;;
26325;SDS011;14032;52.510;7.342;2023-05-10T13:49:33;6.32;;;3.33;;
26325;SDS011;14032;52.510;7.342;2023-05-10T13:51:59;5.95;;;3.35;;
26325;SDS011;14032;52.510;7.342;2023-05-10T13:54:31;6.05;;;3.75;;
26325;SDS011;14032;52.510;7.342;2023-05-10T13:56:58;7.85;;;4.22;;
26325;SDS011;14032;52.510;7.342;2023-05-10T13:59:24;5.60;;;4.03;;
26325;SDS011;14032;52.510;7.342;2023-05-10T14:01:49;7.10;;;4.13;;
26325;SDS011;14032;52.510;7.342;2023-05-10T14:04:15;9.00;;;3.83;;
26325;SDS011;14032;52.510;7.342;2023-05-10T14:06:40;6.63;;;3.38;;
26325;SDS011;14032;52.510;7.342;2023-05-10T14:09:06;5.00;;;3.20;;
26325;SDS011;14032;52.510;7.342;2023-05-10T14:11:31;3.55;;;2.72;;
26325;SDS011;14032;52.510;7.342;2023-05-10T14:13:57;5.80;;;2.55;;
26325;SDS011;14032;52.510;7.342;2023-05-10T14:16:22;4.10;;;2.60;;
26325;SDS011;14032;52.510;7.342;2023-05-10T14:18:48;4.47;;;2.60;;
26325;SDS011;14032;52.510;7.342;2023-05-10T14:21:14;3.72;;;2.75;;
26325;SDS011;14032;52.510;7.342;2023-05-10T14:23:40;6.10;;;2.60;;
26325;SDS011;14032;52.510;7.342;2023-05-10T14:26:05;3.55;;;2.65;;
26325;SDS011;14032;52.510;7.342;2023-05-10T14:28:31;5.32;;;2.60;;
26325;SDS011;14032;52.510;7.342;2023-05-10T14:30:57;6.57;;;3.22;;
26325;SDS011;14032;52.510;7.342;2023-05-10T14:33:24;4.30;;;3.30;;
26325;SDS011;14032;52.510;7.342;2023-05-10T14:35:49;5.32;;;3.22;;
26325;SDS011;14032;52.510;7.342;2023-05-10T14:38:15;5.97;;;3.58;;
26325;SDS011;14032;52.510;7.342;2023-05-10T14:40:41;7.78;;;3.65;;
26325;SDS011;14032;52.510;7.342;2023-05-10T14:43:07;9.52;;;4.15;;
26325;SDS011;14032;52.510;7.342;2023-05-10T14:45:33;8.75;;;4.25;;
26325;SDS011;14032;52.510;7.342;2023-05-10T14:48:00;6.22;;;4.07;;
26325;SDS011;14032;52.510;7.342;2023-05-10T14:50:26;7.60;;;3.65;;
26325;SDS011;14032;52.510;7.342;2023-05-10T14:52:51;8.43;;;3.38;;
26325;SDS011;14032;52.510;7.342;2023-05-10T14:55:17;5.13;;;3.17;;
26325;SDS011;14032;52.510;7.342;2023-05-10T14:57:42;7.93;;;4.10;;
26325;SDS011;14032;52.510;7.342;2023-05-10T15:00:09;7.93;;;4.07;;
26325;SDS011;14032;52.510;7.342;2023-05-10T15:02:35;13.52;;;5.43;;
26325;SDS011;14032;52.510;7.342;2023-05-10T15:05:01;9.32;;;5.03;;
26325;SDS011;14032;52.510;7.342;2023-05-10T15:07:27;9.85;;;5.03;;
26325;SDS011;14032;52.510;7.342;2023-05-10T15:09:52;9.30;;;4.82;;
26325;SDS011;14032;52.510;7.342;2023-05-10T15:12:19;12.40;;;4.85;;
26325;SDS011;14032;52.510;7.342;2023-05-10T15:14:45;7.55;;;3.88;;
26325;SDS011;14032;52.510;7.342;2023-05-10T15:17:10;9.35;;;3.92;;
26325;SDS011;14032;52.510;7.342;2023-05-10T15:19:36;6.75;;;4.00;;
26325;SDS011;14032;52.510;7.342;2023-05-10T15:22:02;7.20;;;4.18;;